createdAt,value
2023-05-18T00:00:34.511Z,11.70
2023-05-18T00:01:36.475Z,11.70
2023-05-18T00:02:38.455Z,11.70
2023-05-18T00:03:41.495Z,11.70
2023-05-18T00:04:44.197Z,11.70
2023-05-18T00:05:49.418Z,11.70
2023-05-18T00:06:56.931Z,11.70
2023-05-18T00:07:59.022Z,11.70
2023-05-18T00:09:00.927Z,11.70
2023-05-18T00:10:03.093Z,11.60
2023-05-18T00:11:06.625Z,11.60
2023-05-18T00:12:10.008Z,11.60
2023-05-18T00:13:13.146Z,11.60
2023-05-18T00:14:15.207Z,11.70
2023-05-18T00:15:17.106Z,11.60
2023-05-18T00:16:18.943Z,11.70
2023-05-18T00:17:24.737Z,11.70
2023-05-18T00:18:28.311Z,11.70
2023-05-18T00:19:30.662Z,11.70
2023-05-18T00:20:32.716Z,11.70
2023-05-18T00:21:35.230Z,11.80
2023-05-18T00:22:42.829Z,11.70
2023-05-18T00:23:49.486Z,11.80
2023-05-18T00:24:51.195Z,11.70
2023-05-18T00:25:52.979Z,11.70
2023-05-18T00:26:54.719Z,11.70
2023-05-18T00:27:56.414Z,11.70
2023-05-18T00:28:58.115Z,11.70
2023-05-18T00:30:00.636Z,11.70
2023-05-18T00:31:02.515Z,11.70
2023-05-18T00:32:06.160Z,11.70
2023-05-18T00:33:08.088Z,11.70
2023-05-18T00:34:10.048Z,11.70
2023-05-18T00:35:12.635Z,11.70
2023-05-18T00:36:14.395Z,11.70
2023-05-18T00:37:16.575Z,11.70
2023-05-18T00:38:18.709Z,11.70
2023-05-18T00:39:20.938Z,11.70
2023-05-18T00:40:25.928Z,11.70
2023-05-18T00:41:28.882Z,11.70
2023-05-18T00:42:32.093Z,11.70
2023-05-18T00:43:34.028Z,11.70
2023-05-18T00:44:36.181Z,11.70
2023-05-18T00:45:38.375Z,11.70
2023-05-18T00:46:40.360Z,11.70
2023-05-18T00:47:42.115Z,11.70
2023-05-18T00:48:44.576Z,11.60
2023-05-18T00:49:46.730Z,11.60
2023-05-18T00:50:48.492Z,11.60
2023-05-18T00:51:51.320Z,11.60
2023-05-18T00:52:53.220Z,11.70
2023-05-18T00:53:57.678Z,11.50
2023-05-18T00:55:00.336Z,11.50
2023-05-18T00:56:03.123Z,11.60
2023-05-18T00:57:07.101Z,11.50
2023-05-18T00:58:10.907Z,11.50
2023-05-18T00:59:12.770Z,11.50
2023-05-18T01:00:15.971Z,11.50
2023-05-18T01:01:19.662Z,11.50
2023-05-18T01:02:22.604Z,11.40
2023-05-18T01:03:26.350Z,11.40
2023-05-18T01:04:28.409Z,11.40
2023-05-18T01:05:30.589Z,11.40
2023-05-18T01:06:36.217Z,11.40
2023-05-18T01:07:43.375Z,11.50
2023-05-18T01:08:45.471Z,11.70
2023-05-18T01:09:47.251Z,11.40
2023-05-18T01:10:55.181Z,11.50
2023-05-18T01:12:24.849Z,11.50
2023-05-18T01:13:58.684Z,11.40
2023-05-18T01:15:08.951Z,11.40
2023-05-18T01:16:17.028Z,11.40
2023-05-18T01:17:53.067Z,11.40
2023-05-18T01:19:14.150Z,11.30
2023-05-18T01:20:20.228Z,11.30
2023-05-18T01:21:49.564Z,11.30
2023-05-18T01:23:06.431Z,11.30
2023-05-18T01:24:31.846Z,11.30
2023-05-18T01:25:58.628Z,11.20
2023-05-18T01:27:01.498Z,11.20
2023-05-18T01:28:08.618Z,11.20
2023-05-18T01:29:12.924Z,11.10
2023-05-18T01:30:18.227Z,11.10
2023-05-18T01:31:20.423Z,11.20
2023-05-18T01:32:22.617Z,11.10
2023-05-18T01:33:25.363Z,11.10
2023-05-18T01:34:27.366Z,11.00
2023-05-18T01:35:29.494Z,11.00
2023-05-18T01:36:31.784Z,11.00
2023-05-18T01:37:33.715Z,10.90
2023-05-18T01:38:36.414Z,10.90
2023-05-18T01:39:38.688Z,10.90
2023-05-18T01:40:52.136Z,10.90
2023-05-18T01:42:05.214Z,10.90
2023-05-18T01:43:17.786Z,10.80
2023-05-18T01:44:27.231Z,10.80
2023-05-18T01:45:31.226Z,10.80
2023-05-18T01:46:36.503Z,10.80
2023-05-18T01:47:42.967Z,10.80
2023-05-18T01:48:52.042Z,10.90
2023-05-18T01:50:02.743Z,10.90
2023-05-18T01:51:06.974Z,10.90
2023-05-18T01:52:29.044Z,10.90
2023-05-18T01:53:39.788Z,10.90
2023-05-18T01:54:45.665Z,10.90
2023-05-18T01:55:50.123Z,10.90
2023-05-18T01:56:54.382Z,10.80
2023-05-18T01:57:58.669Z,10.80
2023-05-18T01:59:01.475Z,10.80
2023-05-18T02:00:07.971Z,10.80
2023-05-18T02:01:09.925Z,10.80
2023-05-18T02:02:11.972Z,10.80
2023-05-18T02:03:14.792Z,10.80
2023-05-18T02:04:16.789Z,10.80
2023-05-18T02:05:19.100Z,10.70
2023-05-18T02:06:21.014Z,10.70
2023-05-18T02:07:22.939Z,10.80
2023-05-18T02:08:24.900Z,10.70
2023-05-18T02:09:26.860Z,10.70
2023-05-18T02:10:28.681Z,10.70
2023-05-18T02:11:31.017Z,10.70
2023-05-18T02:12:32.868Z,10.70
2023-05-18T02:13:34.973Z,10.70
2023-05-18T02:14:36.894Z,10.70
2023-05-18T02:15:38.710Z,10.70
2023-05-18T02:16:40.775Z,10.60
2023-05-18T02:17:43.642Z,10.60
2023-05-18T02:18:45.848Z,10.60
2023-05-18T02:19:47.752Z,10.60
2023-05-18T02:20:50.784Z,10.60
2023-05-18T02:21:53.246Z,10.60
2023-05-18T02:22:55.341Z,10.60
2023-05-18T02:23:57.679Z,10.50
2023-05-18T02:24:59.693Z,10.60
2023-05-18T02:26:01.599Z,10.80
2023-05-18T02:27:03.540Z,10.50
2023-05-18T02:28:05.397Z,10.50
2023-05-18T02:29:09.458Z,10.50
2023-05-18T02:30:14.433Z,10.70
2023-05-18T02:31:17.942Z,10.50
2023-05-18T02:32:20.207Z,10.50
2023-05-18T02:33:26.579Z,10.50
2023-05-18T02:34:32.389Z,10.40
2023-05-18T02:35:35.921Z,10.40
2023-05-18T02:36:39.956Z,10.30
2023-05-18T02:37:42.473Z,10.30
2023-05-18T02:38:44.441Z,10.30
2023-05-18T02:39:46.342Z,10.30
2023-05-18T02:40:48.430Z,10.30
2023-05-18T02:41:50.319Z,10.30
2023-05-18T02:42:52.181Z,10.30
2023-05-18T02:43:54.053Z,10.20
2023-05-18T02:44:56.346Z,10.20
2023-05-18T02:45:58.261Z,10.20
2023-05-18T02:47:00.036Z,10.20
2023-05-18T02:48:01.797Z,10.20
2023-05-18T02:49:03.686Z,10.10
2023-05-18T02:50:06.194Z,10.10
2023-05-18T02:51:07.935Z,10.10
2023-05-18T02:52:10.029Z,10.10
2023-05-18T02:53:12.260Z,10.10
2023-05-18T02:54:14.137Z,10.10
2023-05-18T02:55:17.988Z,10.10
2023-05-18T02:56:19.728Z,10.10
2023-05-18T02:57:22.386Z,10.10
2023-05-18T02:58:25.653Z,10.00
2023-05-18T02:59:27.520Z,10.10
2023-05-18T03:00:30.927Z,10.10
2023-05-18T03:01:37.022Z,10.10
2023-05-18T03:02:39.347Z,10.10
2023-05-18T03:03:42.673Z,10.10
2023-05-18T03:04:44.520Z,10.10
2023-05-18T03:05:46.429Z,10.10
2023-05-18T03:06:53.247Z,10.10
2023-05-18T03:07:55.045Z,10.10
2023-05-18T03:08:57.328Z,10.10
2023-05-18T03:09:59.142Z,10.10
2023-05-18T03:11:01.149Z,10.10
2023-05-18T03:12:03.115Z,10.10
2023-05-18T03:13:05.233Z,10.10
2023-05-18T03:14:07.157Z,10.00
2023-05-18T03:15:09.978Z,10.00
2023-05-18T03:16:11.939Z,10.00
2023-05-18T03:17:16.516Z,10.00
2023-05-18T03:18:21.511Z,9.90
2023-05-18T03:19:23.481Z,9.90
2023-05-18T03:20:26.109Z,9.90
2023-05-18T03:21:33.643Z,9.90
2023-05-18T03:22:36.188Z,9.80
2023-05-18T03:23:38.127Z,9.80
2023-05-18T03:24:43.231Z,9.80
2023-05-18T03:25:46.251Z,9.80
2023-05-18T03:26:48.140Z,9.80
2023-05-18T03:27:49.944Z,9.80
2023-05-18T03:28:52.094Z,9.80
2023-05-18T03:29:55.965Z,9.90
2023-05-18T03:30:58.465Z,9.80
2023-05-18T03:32:00.378Z,9.80
2023-05-18T03:33:03.295Z,9.80
2023-05-18T03:34:05.122Z,9.80
2023-05-18T03:35:07.079Z,9.80
2023-05-18T03:36:09.135Z,9.80
2023-05-18T03:37:11.111Z,9.80
2023-05-18T03:38:12.929Z,9.70
2023-05-18T03:39:14.775Z,9.70
2023-05-18T03:40:16.970Z,9.70
2023-05-18T03:41:18.880Z,9.70
2023-05-18T03:42:21.028Z,9.70
2023-05-18T03:43:26.222Z,9.70
2023-05-18T03:44:28.161Z,9.70
2023-05-18T03:45:31.910Z,9.70
2023-05-18T03:46:34.041Z,9.70
2023-05-18T03:47:36.800Z,9.70
2023-05-18T03:48:38.628Z,9.70
2023-05-18T03:49:40.668Z,9.70
2023-05-18T03:50:42.671Z,9.80
2023-05-18T03:51:44.521Z,9.70
2023-05-18T03:52:46.272Z,9.80
2023-05-18T03:53:48.709Z,9.80
2023-05-18T03:54:50.872Z,9.80
2023-05-18T03:55:52.712Z,9.70
2023-05-18T03:56:54.524Z,9.70
2023-05-18T03:57:57.052Z,9.80
2023-05-18T03:58:59.026Z,9.70
2023-05-18T04:00:01.002Z,9.70
2023-05-18T04:01:02.935Z,9.70
2023-05-18T04:02:05.274Z,9.70
2023-05-18T04:03:07.152Z,9.70
2023-05-18T04:04:09.245Z,9.70
2023-05-18T04:05:12.134Z,9.70
2023-05-18T04:06:13.890Z,9.70
2023-05-18T04:07:22.271Z,9.80
2023-05-18T04:08:25.725Z,9.80
2023-05-18T04:09:28.455Z,9.80
2023-05-18T04:10:32.245Z,9.80
2023-05-18T04:11:34.041Z,9.80
2023-05-18T04:12:35.968Z,9.80
2023-05-18T04:13:40.808Z,9.80
2023-05-18T04:14:42.587Z,9.80
2023-05-18T04:15:44.316Z,9.80
2023-05-18T04:16:46.623Z,9.80
2023-05-18T04:17:52.975Z,9.80
2023-05-18T04:18:55.079Z,9.80
2023-05-18T04:19:57.222Z,9.80
2023-05-18T04:21:00.699Z,9.80
2023-05-18T04:22:05.208Z,9.80
2023-05-18T04:23:09.795Z,9.80
2023-05-18T04:24:14.736Z,10.00
2023-05-18T04:25:19.192Z,9.80
2023-05-18T04:26:22.314Z,9.90
2023-05-18T04:27:25.395Z,9.90
2023-05-18T04:28:28.981Z,9.90
2023-05-18T04:29:31.409Z,9.90
2023-05-18T04:30:33.386Z,9.90
2023-05-18T04:31:35.696Z,9.90
2023-05-18T04:32:38.657Z,9.90
2023-05-18T04:33:41.904Z,9.90
2023-05-18T04:34:43.643Z,9.90
2023-05-18T04:35:45.427Z,9.90
2023-05-18T04:36:47.578Z,9.90
2023-05-18T04:37:49.481Z,9.90
2023-05-18T04:38:54.366Z,9.90
2023-05-18T04:39:56.160Z,9.90
2023-05-18T04:41:00.490Z,9.90
2023-05-18T04:42:04.589Z,10.00
2023-05-18T04:43:07.000Z,9.90
2023-05-18T04:44:09.659Z,9.90
2023-05-18T04:45:16.445Z,9.90
2023-05-18T04:46:18.315Z,10.00
2023-05-18T04:47:22.115Z,10.00
2023-05-18T04:48:26.087Z,10.00
2023-05-18T04:49:29.116Z,10.00
2023-05-18T04:50:30.957Z,9.90
2023-05-18T04:51:34.738Z,9.90
2023-05-18T04:52:37.223Z,10.00
2023-05-18T04:53:39.145Z,10.00
2023-05-18T04:54:41.288Z,10.00
2023-05-18T04:55:43.066Z,10.00
2023-05-18T04:56:47.295Z,10.00
2023-05-18T04:57:57.152Z,10.00
2023-05-18T04:58:59.572Z,10.00
2023-05-18T05:00:01.627Z,10.10
2023-05-18T05:01:03.538Z,10.10
2023-05-18T05:02:05.782Z,10.10
2023-05-18T05:03:08.135Z,10.10
2023-05-18T05:04:10.445Z,10.20
2023-05-18T05:05:12.558Z,10.20
2023-05-18T05:06:14.374Z,10.20
2023-05-18T05:07:16.373Z,10.20
2023-05-18T05:08:18.093Z,10.40
2023-05-18T05:09:19.952Z,10.30
2023-05-18T05:10:22.916Z,10.30
2023-05-18T05:11:25.046Z,10.30
2023-05-18T05:12:26.853Z,10.30
2023-05-18T05:13:29.152Z,10.30
2023-05-18T05:14:31.345Z,10.30
2023-05-18T05:15:34.200Z,10.40
2023-05-18T05:16:36.154Z,10.40
2023-05-18T05:17:38.309Z,10.40
2023-05-18T05:18:40.899Z,10.40
2023-05-18T05:19:42.661Z,10.40
2023-05-18T05:20:44.552Z,10.50
2023-05-18T05:21:46.342Z,10.60
2023-05-18T05:22:48.164Z,10.80
2023-05-18T05:23:50.005Z,10.80
2023-05-18T05:24:51.792Z,10.70
2023-05-18T05:25:53.620Z,10.80
2023-05-18T05:26:55.610Z,10.90
2023-05-18T05:27:57.472Z,10.90
2023-05-18T05:28:59.272Z,11.00
2023-05-18T05:30:01.074Z,11.00
2023-05-18T05:31:03.401Z,11.00
2023-05-18T05:32:05.550Z,11.10
2023-05-18T05:33:07.424Z,11.20
2023-05-18T05:34:11.694Z,11.20
2023-05-18T05:35:13.409Z,11.20
2023-05-18T05:36:15.181Z,11.30
2023-05-18T05:37:17.237Z,11.30
2023-05-18T05:38:18.985Z,11.40
2023-05-18T05:39:20.694Z,11.50
2023-05-18T05:40:22.393Z,11.60
2023-05-18T05:41:25.648Z,11.60
2023-05-18T05:42:27.457Z,11.70
2023-05-18T05:43:29.328Z,11.80
2023-05-18T05:44:31.247Z,11.90
2023-05-18T05:45:33.174Z,12.00
2023-05-18T05:46:35.159Z,12.00
2023-05-18T05:47:36.973Z,12.10
2023-05-18T05:48:38.724Z,12.30
2023-05-18T05:49:40.433Z,12.30
2023-05-18T05:50:42.478Z,12.30
2023-05-18T05:51:44.178Z,12.40
2023-05-18T05:52:45.913Z,12.50
2023-05-18T05:53:49.304Z,12.50
2023-05-18T05:54:50.998Z,12.60
2023-05-18T05:55:52.680Z,12.70
2023-05-18T05:56:54.456Z,12.80
2023-05-18T05:57:56.198Z,12.80
2023-05-18T05:58:57.942Z,12.80
2023-05-18T05:59:59.668Z,12.90
2023-05-18T06:01:01.417Z,12.90
2023-05-18T06:02:03.369Z,13.00
2023-05-18T06:03:05.420Z,13.10
2023-05-18T06:04:10.804Z,13.20
2023-05-18T06:05:12.609Z,13.20
2023-05-18T06:06:15.006Z,13.20
2023-05-18T06:07:17.101Z,13.30
2023-05-18T06:08:19.207Z,13.30
2023-05-18T06:09:21.268Z,13.40
2023-05-18T06:10:23.422Z,13.40
2023-05-18T06:11:25.825Z,13.50
2023-05-18T06:12:27.792Z,13.60
2023-05-18T06:13:29.523Z,13.60
2023-05-18T06:14:31.214Z,13.70
2023-05-18T06:15:33.190Z,13.70
2023-05-18T06:16:35.586Z,13.80
2023-05-18T06:17:38.599Z,13.80
2023-05-18T06:18:41.179Z,13.90
2023-05-18T06:19:43.134Z,13.90
2023-05-18T06:20:45.135Z,13.90
2023-05-18T06:21:46.878Z,13.90
2023-05-18T06:22:48.710Z,14.00
2023-05-18T06:23:50.869Z,14.00
2023-05-18T06:24:52.626Z,14.10
2023-05-18T06:25:54.318Z,14.10
2023-05-18T06:26:55.998Z,14.10
2023-05-18T06:27:59.190Z,14.10
2023-05-18T06:29:01.581Z,14.10
2023-05-18T06:30:05.553Z,14.20
2023-05-18T06:31:07.474Z,14.20
2023-05-18T06:32:09.353Z,14.20
2023-05-18T06:33:13.770Z,14.20
2023-05-18T06:34:15.652Z,14.20
2023-05-18T06:35:17.523Z,14.20
2023-05-18T06:36:20.862Z,14.20
2023-05-18T06:37:22.632Z,14.10
2023-05-18T06:38:24.398Z,14.10
2023-05-18T06:39:26.292Z,14.20
2023-05-18T06:40:28.806Z,14.20
2023-05-18T06:41:30.736Z,14.20
2023-05-18T06:42:32.809Z,14.20
2023-05-18T06:43:34.902Z,14.30
2023-05-18T06:44:37.687Z,14.30
2023-05-18T06:45:39.683Z,14.30
2023-05-18T06:46:41.606Z,14.30
2023-05-18T06:47:43.595Z,14.30
2023-05-18T06:48:45.796Z,14.30
2023-05-18T06:49:47.500Z,14.40
2023-05-18T06:50:49.233Z,14.40
2023-05-18T06:51:51.075Z,14.40
2023-05-18T06:52:53.350Z,14.40
2023-05-18T06:53:55.133Z,14.40
2023-05-18T06:54:57.103Z,14.40
2023-05-18T06:55:58.965Z,14.40
2023-05-18T06:57:00.875Z,14.40
2023-05-18T06:58:02.720Z,14.40
2023-05-18T06:59:04.461Z,14.40
2023-05-18T07:00:07.742Z,14.40
2023-05-18T07:01:10.499Z,14.40
2023-05-18T07:02:14.763Z,14.40
2023-05-18T07:03:16.600Z,14.50
2023-05-18T07:04:19.476Z,14.50
2023-05-18T07:05:21.422Z,14.50
2023-05-18T07:06:23.127Z,14.50
2023-05-18T07:07:24.948Z,14.50
2023-05-18T07:08:29.697Z,14.50
2023-05-18T07:09:31.554Z,14.50
2023-05-18T07:10:33.369Z,14.50
2023-05-18T07:11:35.169Z,14.80
2023-05-18T07:12:37.012Z,14.60
2023-05-18T07:13:38.721Z,14.60
2023-05-18T07:14:40.847Z,14.60
2023-05-18T07:15:42.883Z,14.70
2023-05-18T07:16:47.082Z,14.80
2023-05-18T07:17:48.812Z,14.70
2023-05-18T07:18:50.622Z,14.70
2023-05-18T07:19:52.386Z,14.70
2023-05-18T07:20:54.181Z,14.70
2023-05-18T07:21:56.868Z,14.70
2023-05-18T07:22:58.640Z,14.70
2023-05-18T07:24:00.621Z,14.80
2023-05-18T07:25:02.360Z,14.80
2023-05-18T07:26:04.169Z,14.80
2023-05-18T07:27:06.511Z,14.80
2023-05-18T07:28:08.404Z,14.80
2023-05-18T07:29:10.192Z,14.90
2023-05-18T07:30:12.304Z,14.90
2023-05-18T07:31:16.665Z,14.90
2023-05-18T07:32:18.597Z,14.90
2023-05-18T07:33:20.459Z,14.90
2023-05-18T07:34:23.401Z,15.00
2023-05-18T07:35:26.846Z,14.90
2023-05-18T07:36:28.710Z,15.00
2023-05-18T07:37:31.028Z,15.00
2023-05-18T07:38:32.699Z,15.10
2023-05-18T07:39:34.390Z,15.10
2023-05-18T07:40:36.103Z,15.10
2023-05-18T07:41:37.851Z,15.10
2023-05-18T07:42:40.764Z,15.10
2023-05-18T07:43:43.559Z,15.20
2023-05-18T07:44:45.406Z,15.20
2023-05-18T07:45:47.221Z,15.20
2023-05-18T07:46:49.469Z,15.30
2023-05-18T07:47:51.973Z,15.30
2023-05-18T07:48:56.100Z,15.30
2023-05-18T07:49:57.965Z,15.50
2023-05-18T07:50:59.810Z,15.40
2023-05-18T07:52:02.629Z,15.40
2023-05-18T07:53:04.619Z,15.60
2023-05-18T07:54:06.597Z,15.40
2023-05-18T07:55:09.147Z,15.50
2023-05-18T07:56:10.870Z,15.50
2023-05-18T07:57:12.987Z,15.50
2023-05-18T07:58:14.800Z,15.50
2023-05-18T07:59:16.539Z,15.50
2023-05-18T08:00:19.152Z,15.60
2023-05-18T08:01:22.143Z,15.70
2023-05-18T08:02:24.016Z,15.70
2023-05-18T08:03:26.092Z,15.70
2023-05-18T08:04:29.890Z,15.80
2023-05-18T08:05:32.094Z,15.80
2023-05-18T08:06:34.133Z,15.80
2023-05-18T08:07:36.160Z,15.80
2023-05-18T08:08:42.153Z,15.90
2023-05-18T08:09:45.111Z,15.90
2023-05-18T08:10:46.953Z,15.90
2023-05-18T08:11:51.258Z,16.00
2023-05-18T08:12:52.954Z,16.10
2023-05-18T08:13:54.932Z,16.10
2023-05-18T08:14:57.618Z,16.20
2023-05-18T08:16:11.084Z,16.20
2023-05-18T08:17:15.283Z,16.20
2023-05-18T08:18:17.147Z,16.20
2023-05-18T08:19:18.926Z,16.20
2023-05-18T08:20:21.025Z,16.20
2023-05-18T08:21:22.784Z,16.40
2023-05-18T08:22:26.744Z,16.20
2023-05-18T08:23:28.480Z,16.20
2023-05-18T08:24:30.416Z,16.20
2023-05-18T08:25:32.483Z,16.20
2023-05-18T08:26:34.374Z,16.20
2023-05-18T08:27:36.100Z,16.20
2023-05-18T08:28:38.197Z,16.30
2023-05-18T08:29:41.566Z,16.40
2023-05-18T08:30:43.347Z,16.40
2023-05-18T08:31:46.935Z,16.40
2023-05-18T08:32:50.686Z,16.40
2023-05-18T08:33:53.561Z,16.40
2023-05-18T08:34:55.346Z,16.40
2023-05-18T08:35:57.084Z,16.50
2023-05-18T08:37:00.475Z,16.40
2023-05-18T08:38:05.829Z,16.40
2023-05-18T08:39:09.497Z,16.30
2023-05-18T08:40:14.477Z,16.70
2023-05-18T08:41:28.764Z,16.50
2023-05-18T08:42:48.543Z,16.50
2023-05-18T08:44:00.747Z,16.50
2023-05-18T08:45:32.801Z,16.50
2023-05-18T08:46:39.886Z,16.60
2023-05-18T08:47:42.005Z,16.60
2023-05-18T08:48:45.794Z,16.60
2023-05-18T08:49:51.715Z,16.70
2023-05-18T08:50:58.095Z,16.70
2023-05-18T08:52:05.413Z,16.70
2023-05-18T08:53:07.309Z,16.80
2023-05-18T08:54:10.662Z,16.90
2023-05-18T08:55:14.770Z,16.90
2023-05-18T08:56:19.256Z,17.00
2023-05-18T08:57:22.822Z,17.00
2023-05-18T08:58:34.363Z,17.00
2023-05-18T08:59:41.168Z,17.10
2023-05-18T09:00:43.136Z,17.10
2023-05-18T09:01:45.309Z,17.20
2023-05-18T09:02:48.649Z,17.20
2023-05-18T09:03:51.097Z,17.20
2023-05-18T09:04:54.862Z,17.20
2023-05-18T09:05:59.276Z,17.30
2023-05-18T09:07:02.988Z,17.40
2023-05-18T09:08:08.041Z,17.40
2023-05-18T09:09:10.581Z,17.50
2023-05-18T09:10:13.942Z,17.50
2023-05-18T09:11:17.239Z,17.50
2023-05-18T09:12:20.654Z,17.50
2023-05-18T09:13:23.530Z,17.60
2023-05-18T09:14:26.819Z,17.60
2023-05-18T09:15:29.086Z,17.70
2023-05-18T09:16:33.330Z,17.70
2023-05-18T09:17:43.454Z,17.80
2023-05-18T09:18:45.993Z,17.90
2023-05-18T09:19:47.768Z,18.00
2023-05-18T09:20:49.596Z,18.00
2023-05-18T09:21:51.295Z,18.10
2023-05-18T09:22:53.433Z,18.10
2023-05-18T09:23:55.308Z,18.20
2023-05-18T09:24:57.488Z,18.20
2023-05-18T09:26:00.679Z,18.20
2023-05-18T09:27:02.692Z,18.20
2023-05-18T09:28:05.171Z,18.30
2023-05-18T09:29:21.575Z,18.30
2023-05-18T09:30:27.631Z,18.40
2023-05-18T09:31:32.103Z,18.40
2023-05-18T09:32:36.697Z,18.40
2023-05-18T09:33:40.312Z,18.50
2023-05-18T09:34:42.996Z,18.50
2023-05-18T09:35:47.100Z,18.70
2023-05-18T09:36:57.029Z,18.60
2023-05-18T09:38:04.001Z,18.60
2023-05-18T09:39:11.401Z,18.70
2023-05-18T09:40:13.264Z,18.70
2023-05-18T09:41:17.411Z,18.80
2023-05-18T09:42:19.353Z,18.90
2023-05-18T09:43:21.353Z,18.90
2023-05-18T09:44:34.783Z,18.90
2023-05-18T09:45:43.474Z,18.90
2023-05-18T09:46:45.191Z,18.90
2023-05-18T09:47:51.819Z,18.90
2023-05-18T09:48:58.438Z,18.90
2023-05-18T09:50:00.126Z,19.00
2023-05-18T09:51:01.974Z,18.90
2023-05-18T09:52:09.259Z,18.90
2023-05-18T09:53:12.837Z,18.90
2023-05-18T09:54:15.093Z,18.90
2023-05-18T09:55:18.475Z,18.90
2023-05-18T09:56:21.640Z,18.80
2023-05-18T09:57:23.401Z,18.90
2023-05-18T09:58:25.132Z,18.90
2023-05-18T09:59:31.449Z,18.80
2023-05-18T10:00:38.426Z,18.80
2023-05-18T10:01:57.376Z,18.70
2023-05-18T10:02:59.756Z,18.70
2023-05-18T10:04:06.388Z,18.70
2023-05-18T10:05:34.862Z,18.60
2023-05-18T10:06:37.746Z,18.60
2023-05-18T10:07:43.678Z,18.80
2023-05-18T10:08:46.236Z,18.70
2023-05-18T10:10:01.625Z,18.70
2023-05-18T10:11:04.198Z,18.70
2023-05-18T10:12:11.839Z,18.80
2023-05-18T10:13:18.492Z,18.80
2023-05-18T10:14:25.591Z,18.80
2023-05-18T10:15:29.936Z,18.80
2023-05-18T10:16:32.631Z,18.80
2023-05-18T10:17:34.675Z,18.80
2023-05-18T10:18:38.207Z,18.80
2023-05-18T10:19:44.989Z,18.80
2023-05-18T10:20:48.661Z,18.80
2023-05-18T10:21:55.958Z,19.00
2023-05-18T10:23:00.847Z,18.90
2023-05-18T10:24:05.872Z,18.90
2023-05-18T10:25:12.858Z,19.00
2023-05-18T10:26:19.444Z,19.00
2023-05-18T10:27:28.591Z,19.00
2023-05-18T10:28:38.601Z,19.00
2023-05-18T10:29:42.514Z,19.00
2023-05-18T10:30:44.267Z,19.00
2023-05-18T10:31:47.057Z,19.00
2023-05-18T10:32:51.493Z,19.00
2023-05-18T10:33:53.782Z,19.00
2023-05-18T10:34:56.866Z,19.00
2023-05-18T10:35:58.674Z,19.10
2023-05-18T10:37:05.402Z,19.00
2023-05-18T10:38:07.489Z,19.00
2023-05-18T10:39:11.207Z,19.00
2023-05-18T10:40:15.477Z,19.00
2023-05-18T10:41:23.137Z,19.10
2023-05-18T10:42:26.117Z,19.10
2023-05-18T10:43:29.103Z,19.20
2023-05-18T10:44:31.334Z,19.20
2023-05-18T10:45:36.257Z,19.10
2023-05-18T10:46:39.414Z,19.20
2023-05-18T10:47:43.668Z,19.20
2023-05-18T10:48:48.655Z,19.20
2023-05-18T10:49:50.688Z,19.20
2023-05-18T10:50:55.141Z,19.20
2023-05-18T10:51:59.682Z,19.30
2023-05-18T10:53:05.637Z,19.30
2023-05-18T10:54:14.894Z,19.20
2023-05-18T10:55:16.744Z,19.30
2023-05-18T10:56:18.888Z,19.30
2023-05-18T10:57:21.647Z,19.40
2023-05-18T10:58:27.314Z,19.40
2023-05-18T10:59:29.261Z,19.40
2023-05-18T11:00:36.162Z,19.50
2023-05-18T11:01:40.687Z,19.40
2023-05-18T11:02:43.451Z,19.50
2023-05-18T11:03:45.224Z,19.60
2023-05-18T11:04:51.179Z,19.60
2023-05-18T11:06:06.875Z,19.70
2023-05-18T11:07:15.770Z,19.70
2023-05-18T11:08:27.340Z,19.70
2023-05-18T11:09:30.061Z,19.80
2023-05-18T11:10:43.955Z,20.00
2023-05-18T11:11:58.917Z,19.90
2023-05-18T11:13:04.186Z,19.90
2023-05-18T11:14:06.162Z,19.90
2023-05-18T11:15:08.842Z,20.00
2023-05-18T11:16:11.505Z,20.00
2023-05-18T11:17:25.778Z,20.10
2023-05-18T11:18:38.491Z,20.10
2023-05-18T11:19:40.313Z,20.10
2023-05-18T11:20:46.635Z,20.00
2023-05-18T11:21:51.976Z,20.00
2023-05-18T11:22:59.548Z,19.90
2023-05-18T11:24:32.597Z,20.00
2023-05-18T11:25:34.741Z,20.00
2023-05-18T11:26:40.844Z,20.10
2023-05-18T11:27:42.565Z,20.10
2023-05-18T11:28:44.466Z,20.10
2023-05-18T11:29:50.652Z,20.20
2023-05-18T11:30:55.328Z,20.20
2023-05-18T11:31:57.506Z,20.20
2023-05-18T11:33:14.677Z,20.40
2023-05-18T11:34:46.465Z,20.40
2023-05-18T11:36:04.801Z,20.10
2023-05-18T11:37:10.168Z,20.10
2023-05-18T11:38:12.681Z,20.20
2023-05-18T11:39:24.003Z,20.20
2023-05-18T11:40:49.355Z,20.20
2023-05-18T11:42:07.741Z,20.20
2023-05-18T11:43:09.596Z,20.30
2023-05-18T11:44:21.192Z,20.40
2023-05-18T11:45:23.280Z,20.50
2023-05-18T11:46:26.563Z,20.50
2023-05-18T11:47:31.874Z,20.60
2023-05-18T11:48:33.903Z,20.70
2023-05-18T11:49:51.126Z,20.60
2023-05-18T11:50:57.211Z,20.70
2023-05-18T11:52:02.139Z,20.70
2023-05-18T11:53:03.922Z,20.60
2023-05-18T11:54:09.172Z,20.60
2023-05-18T11:55:15.643Z,20.60
2023-05-18T11:56:17.874Z,20.60
2023-05-18T11:57:24.982Z,20.60
2023-05-18T11:58:27.052Z,20.60
2023-05-18T11:59:38.457Z,20.70
2023-05-18T12:00:41.868Z,20.90
2023-05-18T12:01:44.290Z,20.80
2023-05-18T12:02:47.960Z,20.80
2023-05-18T12:03:51.124Z,20.90
2023-05-18T12:04:55.021Z,20.90
2023-05-18T12:06:01.412Z,20.90
2023-05-18T12:07:08.684Z,21.00
2023-05-18T12:08:11.473Z,21.00
2023-05-18T12:09:13.437Z,21.10
2023-05-18T12:10:19.558Z,21.10
2023-05-18T12:11:22.624Z,21.20
2023-05-18T12:12:24.974Z,21.30
2023-05-18T12:13:27.915Z,21.30
2023-05-18T12:14:30.594Z,21.40
2023-05-18T12:15:33.600Z,21.30
2023-05-18T12:16:36.919Z,21.20
2023-05-18T12:17:43.591Z,21.20
2023-05-18T12:18:52.232Z,21.20
2023-05-18T12:19:53.989Z,21.10
2023-05-18T12:20:55.879Z,21.10
2023-05-18T12:21:58.979Z,21.20
2023-05-18T12:23:01.155Z,21.30
2023-05-18T12:24:04.065Z,21.30
2023-05-18T12:25:06.772Z,21.40
2023-05-18T12:26:09.039Z,21.40
2023-05-18T12:27:12.242Z,21.40
2023-05-18T12:28:15.675Z,21.40
2023-05-18T12:29:20.181Z,21.50
2023-05-18T12:30:35.256Z,21.50
2023-05-18T12:31:41.534Z,21.60
2023-05-18T12:32:54.071Z,21.70
2023-05-18T12:33:59.007Z,21.70
2023-05-18T12:35:01.130Z,21.90
2023-05-18T12:36:02.949Z,21.70
2023-05-18T12:37:06.300Z,21.70
2023-05-18T12:38:08.393Z,21.60
2023-05-18T12:39:15.016Z,21.50
2023-05-18T12:40:19.224Z,21.50
2023-05-18T12:41:27.816Z,21.40
2023-05-18T12:42:29.575Z,21.50
2023-05-18T12:43:35.459Z,21.40
2023-05-18T12:44:37.904Z,21.50
2023-05-18T12:45:40.909Z,21.50
2023-05-18T12:46:46.092Z,21.60
2023-05-18T12:47:48.208Z,22.00
2023-05-18T12:48:58.248Z,21.90
2023-05-18T12:50:03.446Z,22.00
2023-05-18T12:51:05.478Z,22.00
2023-05-18T12:52:15.594Z,22.00
2023-05-18T12:53:18.198Z,22.00
2023-05-18T12:54:28.424Z,22.00
2023-05-18T12:55:31.242Z,21.90
2023-05-18T12:57:01.435Z,21.80
2023-05-18T12:58:07.288Z,21.70
2023-05-18T12:59:10.113Z,21.60
2023-05-18T13:00:12.833Z,21.50
2023-05-18T13:01:14.760Z,21.50
2023-05-18T13:02:31.878Z,21.60
2023-05-18T13:03:35.093Z,21.70
2023-05-18T13:04:37.055Z,21.80
2023-05-18T13:05:39.460Z,22.00
2023-05-18T13:06:42.183Z,22.10
2023-05-18T13:07:46.431Z,22.30
2023-05-18T13:08:48.450Z,22.30
2023-05-18T13:09:50.190Z,22.50
2023-05-18T13:11:05.140Z,22.40
2023-05-18T13:12:13.685Z,22.50
2023-05-18T13:13:16.432Z,22.60
2023-05-18T13:14:22.711Z,22.60
2023-05-18T13:15:28.488Z,22.60
2023-05-18T13:16:31.446Z,22.60
2023-05-18T13:17:33.321Z,22.50
2023-05-18T13:18:36.369Z,22.40
2023-05-18T13:19:38.102Z,22.40
2023-05-18T13:20:45.457Z,22.30
2023-05-18T13:21:56.507Z,22.30
2023-05-18T13:23:03.262Z,22.20
2023-05-18T13:24:05.503Z,22.10
2023-05-18T13:25:08.313Z,22.00
2023-05-18T13:26:10.110Z,21.90
2023-05-18T13:27:11.842Z,21.90
2023-05-18T13:28:16.121Z,21.80
2023-05-18T13:29:18.003Z,22.00
2023-05-18T13:30:19.965Z,22.00
2023-05-18T13:31:22.910Z,22.10
2023-05-18T13:32:24.764Z,22.30
2023-05-18T13:33:26.898Z,22.60
2023-05-18T13:34:28.699Z,22.50
2023-05-18T13:35:32.215Z,22.60
2023-05-18T13:36:36.126Z,22.70
2023-05-18T13:37:38.175Z,22.90
2023-05-18T13:38:40.087Z,23.00
2023-05-18T13:39:42.126Z,22.90
2023-05-18T13:40:45.655Z,22.90
2023-05-18T13:41:47.443Z,22.80
2023-05-18T13:42:49.283Z,22.70
2023-05-18T13:43:51.056Z,22.50
2023-05-18T13:44:52.920Z,22.60
2023-05-18T13:45:54.692Z,22.70
2023-05-18T13:46:58.646Z,22.50
2023-05-18T13:48:00.714Z,22.50